createdAt,value
2023-09-08T00:01:54.704Z,20.9
2023-09-08T00:07:01.024Z,20.8
2023-09-08T00:12:08.092Z,20.8
2023-09-08T00:17:14.555Z,20.7
2023-09-08T00:22:21.002Z,20.6
2023-09-08T00:27:27.372Z,20.5
2023-09-08T00:32:33.876Z,20.5
2023-09-08T00:42:46.488Z,20.3
2023-09-08T00:47:52.944Z,20.2
2023-09-08T00:52:58.282Z,20.2
2023-09-08T00:58:05.674Z,20.1
2023-09-08T01:03:12.139Z,20.0
2023-09-08T01:08:22.059Z,20.0
2023-09-08T01:13:28.584Z,19.9
2023-09-08T01:21:12.558Z,19.7
2023-09-08T01:26:14.893Z,19.7
2023-09-08T01:31:25.413Z,19.7
2023-09-08T01:36:07.765Z,19.7
2023-09-08T01:41:14.328Z,19.6
2023-09-08T01:46:20.744Z,19.4
2023-09-08T01:51:27.171Z,19.4
2023-09-08T01:56:33.600Z,19.3
2023-09-08T02:01:40.013Z,19.2
2023-09-08T02:06:46.489Z,19.1
2023-09-08T02:11:52.888Z,19.0
2023-09-08T02:16:49.287Z,18.9
2023-09-08T02:22:32.294Z,18.9
2023-09-08T02:37:28.397Z,18.7
2023-09-08T02:42:34.979Z,18.6
2023-09-08T02:47:31.275Z,18.5
2023-09-08T03:03:00.716Z,18.4
2023-09-08T03:13:14.080Z,18.3
2023-09-08T03:18:20.529Z,18.2
2023-09-08T03:23:31.119Z,18.1
2023-09-08T03:28:57.520Z,18.1
2023-09-08T03:33:44.004Z,18.0
2023-09-08T03:38:50.263Z,18.0
2023-09-08T03:48:53.142Z,17.8
2023-09-08T03:54:29.636Z,17.8
2023-09-08T03:59:16.035Z,17.8
2023-09-08T04:04:22.441Z,17.7
2023-09-08T04:09:28.815Z,17.7
2023-09-08T04:14:35.392Z,17.6
2023-09-08T04:19:41.612Z,17.6
2023-09-08T04:24:37.938Z,17.5
2023-09-08T04:29:54.429Z,17.5
2023-09-08T04:35:24.788Z,17.4
2023-09-08T04:40:07.101Z,17.4
2023-09-08T04:45:13.494Z,17.3
2023-09-08T04:55:26.374Z,17.2
2023-09-08T05:00:22.746Z,17.2
2023-09-08T05:05:29.372Z,17.1
2023-09-08T05:10:45.755Z,17.1
2023-09-08T05:15:42.127Z,17.0
2023-09-08T05:21:22.606Z,17.0
2023-09-08T05:26:04.901Z,16.9
2023-09-08T05:31:11.289Z,16.9
2023-09-08T05:36:17.644Z,16.9
2023-09-08T05:41:14.022Z,16.9
2023-09-08T05:47:14.592Z,16.9
2023-09-08T05:52:00.876Z,16.9
2023-09-08T05:56:43.205Z,16.9
2023-09-08T06:02:09.611Z,16.9
2023-09-08T06:06:55.970Z,16.9
2023-09-08T06:12:02.469Z,16.9
2023-09-08T06:17:08.928Z,17.0
2023-09-08T06:22:15.311Z,17.0
2023-09-08T06:27:21.720Z,17.0
2023-09-08T06:32:28.153Z,17.1
2023-09-08T06:37:34.449Z,17.1
2023-09-08T06:52:53.597Z,17.3
2023-09-08T07:04:26.661Z,17.5
2023-09-08T07:08:02.712Z,17.6
2023-09-08T07:13:39.452Z,17.7
2023-09-08T07:18:45.689Z,17.9
2023-09-08T07:23:22.028Z,18.0
2023-09-08T07:28:38.569Z,18.2
2023-09-08T07:33:45.011Z,18.4
2023-09-08T07:38:41.370Z,19.0
2023-09-08T07:43:57.988Z,19.8
2023-09-08T07:49:04.206Z,21.0
2023-09-08T07:54:10.586Z,22.2
2023-09-08T08:01:17.237Z,23.5
2023-09-08T08:04:23.466Z,24.8
2023-09-08T08:09:19.734Z,25.9
2023-09-08T08:15:00.300Z,26.9
2023-09-08T08:20:20.693Z,28.0
2023-09-08T08:24:48.893Z,29.0
2023-09-08T08:30:15.299Z,30.0
2023-09-08T08:35:01.627Z,30.9
2023-09-08T08:40:08.036Z,31.8
2023-09-08T08:45:15.552Z,32.5
2023-09-08T08:50:24.205Z,33.3
2023-09-08T08:55:29.552Z,34.0
2023-09-08T09:00:35.900Z,34.7
2023-09-08T09:10:50.873Z,36.1
2023-09-08T09:16:53.330Z,36.6
2023-09-08T09:21:27.655Z,37.1
2023-09-08T09:26:34.091Z,37.7
2023-09-08T09:31:16.330Z,38.1
2023-09-08T09:37:06.738Z,38.6
2023-09-08T09:41:53.131Z,39.1
2023-09-08T09:46:59.508Z,39.5
2023-09-08T09:51:41.858Z,40.0
2023-09-08T09:56:50.340Z,40.4
2023-09-08T10:01:54.728Z,40.8
2023-09-08T10:07:00.974Z,41.2
2023-09-08T10:17:13.998Z,41.8
2023-09-08T10:22:20.547Z,42.2
2023-09-08T10:27:16.836Z,42.5
2023-09-08T10:32:33.241Z,42.9
2023-09-08T10:42:45.995Z,43.4
2023-09-08T10:47:52.357Z,43.7
2023-09-08T10:53:32.981Z,43.9
2023-09-08T11:03:11.509Z,44.4
2023-09-08T11:14:09.000Z,44.8
2023-09-08T11:18:35.246Z,44.9
2023-09-08T11:23:41.294Z,44.9
2023-09-08T11:34:14.338Z,44.7
2023-09-08T11:38:50.600Z,44.0
2023-09-08T11:44:07.013Z,44.3
2023-09-08T11:49:13.431Z,44.5
2023-09-08T11:54:51.855Z,44.5
2023-09-08T12:05:28.779Z,44.6
2023-09-08T12:09:28.982Z,44.7
2023-09-08T12:14:48.136Z,44.6
2023-09-08T12:19:51.765Z,44.7
2023-09-08T12:24:58.242Z,44.5
2023-09-08T12:30:04.553Z,44.3
2023-09-08T12:35:10.911Z,44.1
2023-09-08T12:40:17.361Z,43.9
2023-09-08T12:45:37.803Z,43.7
2023-09-08T12:51:14.297Z,43.4
2023-09-08T12:55:56.739Z,43.2
2023-09-08T13:01:27.230Z,43.0
2023-09-08T13:05:49.600Z,42.8
2023-09-08T13:11:39.983Z,42.6
2023-09-08T13:16:02.294Z,42.4
2023-09-08T13:21:08.671Z,42.3
2023-09-08T13:26:15.000Z,42.1
2023-09-08T13:36:27.801Z,41.8
2023-09-08T13:41:34.116Z,41.6
2023-09-08T13:46:40.644Z,41.5
2023-09-08T13:51:49.363Z,41.2
2023-09-08T13:57:21.022Z,41.1
2023-09-08T14:17:43.032Z,40.1
2023-09-08T14:22:25.341Z,39.8
2023-09-08T14:27:21.717Z,39.5
2023-09-08T14:32:38.137Z,39.2
2023-09-08T14:37:44.502Z,38.9
2023-09-08T14:43:14.966Z,38.6
2023-09-08T14:47:59.569Z,38.3
2023-09-08T14:53:23.733Z,37.9
2023-09-08T14:58:24.118Z,37.6
2023-09-08T15:03:16.535Z,37.2
2023-09-08T15:08:23.002Z,36.9
2023-09-08T15:18:35.821Z,36.2
2023-09-08T15:23:42.204Z,35.9
2023-09-08T15:28:48.647Z,35.6
2023-09-08T15:33:55.106Z,35.3
2023-09-08T15:39:01.373Z,35.0
2023-09-08T15:44:07.750Z,34.7
2023-09-08T15:49:14.227Z,34.5
2023-09-08T15:54:20.565Z,34.2
2023-09-08T15:59:26.995Z,34.0
2023-09-08T16:04:33.649Z,33.7
2023-09-08T16:09:39.856Z,33.6
2023-09-08T16:15:06.327Z,33.3
2023-09-08T16:20:18.154Z,33.1
2023-09-08T16:24:59.012Z,32.9
2023-09-08T16:30:05.388Z,32.8
2023-09-08T16:35:11.760Z,32.6
2023-09-08T16:45:24.518Z,32.3
2023-09-08T16:50:44.920Z,32.1
2023-09-08T16:55:37.509Z,31.9
2023-09-08T17:01:08.022Z,31.8
2023-09-08T17:06:14.512Z,31.6
2023-09-08T17:10:58.499Z,31.5
2023-09-08T17:16:03.192Z,31.3
2023-09-08T17:21:09.556Z,31.2
2023-09-08T17:26:15.969Z,31.0
2023-09-08T17:31:42.382Z,30.8
2023-09-08T17:37:10.772Z,30.7
2023-09-08T17:41:35.115Z,30.5
2023-09-08T17:47:09.592Z,30.3
2023-09-08T17:52:24.638Z,29.9
2023-09-08T17:57:32.125Z,29.9
2023-09-08T18:02:42.480Z,29.8
2023-09-08T18:18:21.773Z,29.2
2023-09-08T18:23:04.157Z,29.0
2023-09-08T18:28:30.827Z,28.8
2023-09-08T18:33:38.000Z,28.6
2023-09-08T18:38:24.191Z,28.4
2023-09-08T18:43:30.532Z,28.2
2023-09-08T18:48:36.966Z,28.0
2023-09-08T18:54:34.435Z,27.9
2023-09-08T18:58:52.715Z,27.7
2023-09-08T19:09:29.699Z,27.3
2023-09-08T19:14:02.014Z,27.1
2023-09-08T19:19:57.517Z,27.0
2023-09-08T19:24:24.509Z,26.8
2023-09-08T19:29:31.853Z,26.7
2023-09-08T19:34:58.524Z,26.5
2023-09-08T19:39:44.914Z,26.3
2023-09-08T19:44:51.264Z,26.2
2023-09-08T19:50:17.696Z,26.0
2023-09-08T19:55:04.070Z,25.9
2023-09-08T20:00:10.462Z,25.7
2023-09-08T20:05:16.884Z,25.6
2023-09-08T20:16:41.978Z,25.3
2023-09-08T20:21:15.216Z,25.1
2023-09-08T20:25:41.642Z,25.0
2023-09-08T20:31:52.350Z,24.9
2023-09-08T20:36:38.669Z,24.7
2023-09-08T20:42:00.216Z,24.5
2023-09-08T20:47:27.692Z,24.4
2023-09-08T20:52:09.979Z,24.4
2023-09-08T20:57:20.391Z,24.3
2023-09-08T21:02:41.821Z,24.1
2023-09-08T21:12:15.560Z,23.9
2023-09-08T21:17:21.951Z,23.8
2023-09-08T21:22:48.332Z,23.7
2023-09-08T21:27:34.708Z,23.6
2023-09-08T21:33:01.342Z,23.5
2023-09-08T21:37:37.555Z,23.3
2023-09-08T21:42:43.933Z,23.3
2023-09-08T21:48:44.702Z,23.1
2023-09-08T21:53:50.976Z,23.0
2023-09-08T22:05:24.949Z,22.8
2023-09-08T22:18:55.650Z,22.6
2023-09-08T22:24:27.042Z,22.6
2023-09-08T22:29:45.073Z,22.5
2023-09-08T22:35:16.481Z,22.5
2023-09-08T22:39:58.826Z,22.4
2023-09-08T22:45:43.310Z,22.2
2023-09-08T22:50:11.542Z,22.1
2023-09-08T22:55:25.875Z,22.0
2023-09-08T23:00:24.420Z,21.9
2023-09-08T23:06:04.858Z,21.8
2023-09-08T23:12:34.549Z,21.6
2023-09-08T23:17:40.866Z,21.6
2023-09-08T23:22:48.185Z,21.6
2023-09-08T23:33:01.836Z,21.4
2023-09-08T23:38:32.220Z,21.3
2023-09-08T23:43:18.592Z,21.2
2023-09-08T23:48:40.987Z,21.1
2023-09-08T23:53:47.378Z,21.0
2023-09-08T23:59:12.852Z,20.9
